createdAt,value
2023-05-08T00:01:24.683Z,5.57
2023-05-08T00:03:52.377Z,7.15
2023-05-08T00:06:19.457Z,6.35
2023-05-08T00:08:46.123Z,6.38
2023-05-08T00:11:12.887Z,7.18
2023-05-08T00:13:39.563Z,6.57
2023-05-08T00:16:06.479Z,5.80
2023-05-08T00:18:33.086Z,11.55
2023-05-08T00:20:59.696Z,9.55
2023-05-08T00:23:26.322Z,7.82
2023-05-08T00:25:53.016Z,7.15
2023-05-08T00:28:19.714Z,5.95
2023-05-08T00:30:46.429Z,6.22
2023-05-08T00:33:13.043Z,6.38
2023-05-08T00:35:39.771Z,7.20
2023-05-08T00:38:06.480Z,5.82
2023-05-08T00:40:33.191Z,6.10
2023-05-08T00:42:59.811Z,7.13
2023-05-08T00:45:33.320Z,9.88
2023-05-08T00:48:00.307Z,10.15
2023-05-08T00:50:27.122Z,7.05
2023-05-08T00:52:54.454Z,9.18
2023-05-08T00:55:21.298Z,7.57
2023-05-08T00:57:48.181Z,8.35
2023-05-08T01:00:18.548Z,7.82
2023-05-08T01:02:46.585Z,6.95
2023-05-08T01:07:40.062Z,8.20
2023-05-08T01:10:07.263Z,9.10
2023-05-08T01:12:51.827Z,8.13
2023-05-08T01:15:35.219Z,11.77
2023-05-08T01:18:15.626Z,9.65
2023-05-08T01:20:48.829Z,9.35
2023-05-08T01:23:34.443Z,11.70
2023-05-08T01:26:19.635Z,10.32
2023-05-08T01:29:13.267Z,8.88
2023-05-08T01:32:10.540Z,7.90
2023-05-08T01:34:43.275Z,8.07
2023-05-08T01:37:15.134Z,8.48
2023-05-08T01:39:51.157Z,9.32
2023-05-08T01:42:26.267Z,11.02
2023-05-08T01:45:07.716Z,12.88
2023-05-08T01:47:37.940Z,11.68
2023-05-08T01:50:14.129Z,6.95
2023-05-08T01:52:46.720Z,8.77
2023-05-08T01:55:20.751Z,9.48
2023-05-08T01:57:51.962Z,9.95
2023-05-08T02:00:21.226Z,7.97
2023-05-08T02:02:49.722Z,8.43
2023-05-08T02:05:18.282Z,7.55
2023-05-08T02:07:49.168Z,10.30
2023-05-08T02:10:17.431Z,7.03
2023-05-08T02:12:47.734Z,9.55
2023-05-08T02:15:16.466Z,8.00
2023-05-08T02:17:46.227Z,6.70
2023-05-08T02:20:14.733Z,6.20
2023-05-08T02:22:48.486Z,9.05
2023-05-08T02:25:16.102Z,10.38
2023-05-08T02:27:45.768Z,6.88
2023-05-08T02:30:14.677Z,6.78
2023-05-08T02:32:44.508Z,7.25
2023-05-08T02:35:16.813Z,7.13
2023-05-08T02:37:46.742Z,7.32
2023-05-08T02:40:15.083Z,7.22
2023-05-08T02:45:10.180Z,10.98
2023-05-08T02:47:44.075Z,6.20
2023-05-08T02:50:19.544Z,5.95
2023-05-08T02:52:52.564Z,7.90
2023-05-08T02:55:28.296Z,6.22
2023-05-08T02:58:17.072Z,7.32
2023-05-08T03:00:50.995Z,5.78
2023-05-08T03:03:27.446Z,4.63
2023-05-08T03:05:57.765Z,6.15
2023-05-08T03:08:30.541Z,7.38
2023-05-08T03:11:01.286Z,6.88
2023-05-08T03:13:31.604Z,7.72
2023-05-08T03:16:01.551Z,10.90
2023-05-08T03:18:36.885Z,7.45
2023-05-08T03:21:05.564Z,7.95
2023-05-08T03:23:36.146Z,7.90
2023-05-08T03:26:03.373Z,6.53
2023-05-08T03:28:31.284Z,8.23
2023-05-08T03:31:00.794Z,6.20
2023-05-08T03:33:29.509Z,7.20
2023-05-08T03:35:57.955Z,9.30
2023-05-08T03:38:24.962Z,6.70
2023-05-08T03:40:53.443Z,6.43
2023-05-08T03:43:21.548Z,8.43
2023-05-08T03:45:48.706Z,9.23
2023-05-08T03:48:16.884Z,6.97
2023-05-08T03:50:44.381Z,10.00
2023-05-08T03:53:10.966Z,10.05
2023-05-08T03:55:37.816Z,8.57
2023-05-08T03:58:22.424Z,11.90
2023-05-08T04:00:48.922Z,7.95
2023-05-08T04:03:23.965Z,6.95
2023-05-08T04:06:00.723Z,6.95
2023-05-08T04:08:32.482Z,7.53
2023-05-08T04:11:09.932Z,10.43
2023-05-08T04:13:49.002Z,7.13
2023-05-08T04:16:27.886Z,7.18
2023-05-08T04:19:01.591Z,5.97
2023-05-08T04:21:32.518Z,10.45
2023-05-08T04:23:59.648Z,7.18
2023-05-08T04:26:28.315Z,10.23
2023-05-08T04:28:57.562Z,6.50
2023-05-08T04:31:24.877Z,6.22
2023-05-08T04:33:51.909Z,7.40
2023-05-08T04:36:18.649Z,7.38
2023-05-08T04:38:45.843Z,8.07
2023-05-08T04:41:13.148Z,10.13
2023-05-08T04:43:40.423Z,7.97
2023-05-08T04:46:07.983Z,8.45
2023-05-08T04:48:34.673Z,7.70
2023-05-08T04:51:01.721Z,7.30
2023-05-08T04:53:28.642Z,7.75
2023-05-08T04:55:55.218Z,7.32
2023-05-08T04:58:21.968Z,7.05
2023-05-08T05:00:49.089Z,8.95
2023-05-08T05:03:15.866Z,6.97
2023-05-08T05:05:43.098Z,7.90
2023-05-08T05:08:09.983Z,7.13
2023-05-08T05:10:38.683Z,10.88
2023-05-08T05:13:05.423Z,6.95
2023-05-08T05:15:32.832Z,5.43
2023-05-08T05:17:59.639Z,7.70
2023-05-08T05:20:26.337Z,7.22
2023-05-08T05:22:53.501Z,7.60
2023-05-08T05:25:20.161Z,8.90
2023-05-08T05:27:47.013Z,8.10
2023-05-08T05:30:14.061Z,8.85
2023-05-08T05:32:41.166Z,6.97
2023-05-08T05:35:09.924Z,7.65
2023-05-08T05:37:36.840Z,6.43
2023-05-08T05:40:04.145Z,6.55
2023-05-08T05:42:32.726Z,11.18
2023-05-08T05:44:59.469Z,8.70
2023-05-08T05:47:26.291Z,6.72
2023-05-08T05:49:53.066Z,10.23
2023-05-08T05:52:19.912Z,8.65
2023-05-08T05:54:46.714Z,7.60
2023-05-08T05:57:13.499Z,9.25
2023-05-08T05:59:41.265Z,6.32
2023-05-08T06:02:08.542Z,6.90
2023-05-08T06:04:35.515Z,6.82
2023-05-08T06:07:02.320Z,9.48
2023-05-08T06:09:28.895Z,8.80
2023-05-08T06:11:55.679Z,7.05
2023-05-08T06:14:22.333Z,7.93
2023-05-08T06:16:49.084Z,7.03
2023-05-08T06:19:15.873Z,9.05
2023-05-08T06:21:42.766Z,11.80
2023-05-08T06:24:09.436Z,8.55
2023-05-08T06:26:36.003Z,9.02
2023-05-08T06:29:02.656Z,6.93
2023-05-08T06:31:29.350Z,12.85
2023-05-08T06:33:56.163Z,10.00
2023-05-08T06:36:22.759Z,10.50
2023-05-08T06:38:49.442Z,9.35
2023-05-08T06:41:16.061Z,5.95
2023-05-08T06:43:42.640Z,6.35
2023-05-08T06:46:09.759Z,6.57
2023-05-08T06:48:36.426Z,7.97
2023-05-08T06:51:03.177Z,7.18
2023-05-08T06:53:29.866Z,9.70
2023-05-08T06:55:56.472Z,6.72
2023-05-08T06:58:23.187Z,7.60
2023-05-08T07:00:49.940Z,10.60
2023-05-08T07:03:17.043Z,8.37
2023-05-08T07:05:43.579Z,10.43
2023-05-08T07:08:10.306Z,12.10
2023-05-08T07:10:36.969Z,8.05
2023-05-08T07:13:03.592Z,6.65
2023-05-08T07:15:32.223Z,8.20
2023-05-08T07:17:58.914Z,9.65
2023-05-08T07:20:25.862Z,8.07
2023-05-08T07:22:52.543Z,11.55
2023-05-08T07:25:19.253Z,9.50
2023-05-08T07:27:45.996Z,7.85
2023-05-08T07:30:13.023Z,9.45
2023-05-08T07:32:39.849Z,8.75
2023-05-08T07:35:09.651Z,7.80
2023-05-08T07:37:36.993Z,10.68
2023-05-08T07:40:03.803Z,11.32
2023-05-08T07:42:30.581Z,10.68
2023-05-08T07:44:57.303Z,8.48
2023-05-08T07:47:23.921Z,9.75
2023-05-08T07:49:50.860Z,8.30
2023-05-08T07:52:17.448Z,9.13
2023-05-08T07:54:44.179Z,9.38
2023-05-08T07:57:10.852Z,10.50
2023-05-08T07:59:37.404Z,11.35
2023-05-08T08:02:04.083Z,9.32
2023-05-08T08:04:30.881Z,9.50
2023-05-08T08:06:57.539Z,11.35
2023-05-08T08:09:24.294Z,11.25
2023-05-08T08:11:50.826Z,11.52
2023-05-08T08:14:17.515Z,8.55
2023-05-08T08:16:44.139Z,12.27
2023-05-08T08:19:10.759Z,10.93
2023-05-08T08:21:42.434Z,17.45
2023-05-08T08:24:09.530Z,10.50
2023-05-08T08:26:36.154Z,12.95
2023-05-08T08:29:02.812Z,13.50
2023-05-08T08:31:29.764Z,13.32
2023-05-08T08:33:56.425Z,13.30
2023-05-08T08:36:23.257Z,12.13
2023-05-08T08:38:49.970Z,13.32
2023-05-08T08:41:16.658Z,12.40
2023-05-08T08:43:43.291Z,12.20
2023-05-08T08:46:14.353Z,10.60
2023-05-08T08:48:46.190Z,10.73
2023-05-08T08:51:24.610Z,10.57
2023-05-08T08:54:00.939Z,13.52
2023-05-08T08:56:28.264Z,12.93
2023-05-08T08:58:57.366Z,14.10
2023-05-08T09:01:24.891Z,12.90
2023-05-08T09:03:51.592Z,12.48
2023-05-08T09:06:19.760Z,14.15
2023-05-08T09:08:47.324Z,11.50
2023-05-08T09:11:14.181Z,12.73
2023-05-08T09:13:40.807Z,11.75
2023-05-08T09:16:07.695Z,13.20
2023-05-08T09:18:34.389Z,11.30
2023-05-08T09:21:01.562Z,14.38
2023-05-08T09:23:28.128Z,12.30
2023-05-08T09:25:54.849Z,18.98
2023-05-08T09:28:23.553Z,14.18
2023-05-08T09:30:52.045Z,14.25
2023-05-08T09:33:19.694Z,12.98
2023-05-08T09:35:46.690Z,12.88
2023-05-08T09:38:32.005Z,16.15
2023-05-08T09:41:25.006Z,11.25
2023-05-08T09:44:05.584Z,11.68
2023-05-08T09:46:33.337Z,13.18
2023-05-08T09:49:01.801Z,18.27
2023-05-08T09:51:30.439Z,15.95
2023-05-08T09:53:58.849Z,16.35
2023-05-08T09:56:36.005Z,17.95
2023-05-08T09:59:04.509Z,16.15
2023-05-08T10:01:33.787Z,16.45
2023-05-08T10:04:00.921Z,15.15
2023-05-08T10:06:28.710Z,14.88
2023-05-08T10:09:08.234Z,16.50
2023-05-08T10:11:35.047Z,14.60
2023-05-08T10:14:01.683Z,17.85
2023-05-08T10:16:30.297Z,19.77
2023-05-08T10:19:01.383Z,18.10
2023-05-08T10:21:29.521Z,18.92
2023-05-08T10:24:01.200Z,22.25
2023-05-08T10:26:31.573Z,16.42
2023-05-08T10:29:01.548Z,15.18
2023-05-08T10:31:29.088Z,20.90
2023-05-08T10:33:56.542Z,16.30
2023-05-08T10:36:26.233Z,17.10
2023-05-08T10:38:54.020Z,17.20
2023-05-08T10:41:21.176Z,18.92
2023-05-08T10:43:49.453Z,15.10
2023-05-08T10:46:29.232Z,16.42
2023-05-08T10:49:22.165Z,19.70
2023-05-08T10:52:10.527Z,16.88
2023-05-08T10:54:51.925Z,17.83
2023-05-08T10:57:18.575Z,14.77
2023-05-08T10:59:46.804Z,20.48
2023-05-08T11:02:14.138Z,16.77
2023-05-08T11:04:41.000Z,12.48
2023-05-08T11:07:07.933Z,16.75
2023-05-08T11:09:43.463Z,18.27
2023-05-08T11:12:21.981Z,16.80
2023-05-08T11:15:03.112Z,19.30
2023-05-08T11:17:29.772Z,18.50
2023-05-08T11:20:01.905Z,16.55
2023-05-08T11:22:36.028Z,16.10
2023-05-08T11:25:06.076Z,16.60
2023-05-08T11:28:04.245Z,15.27
2023-05-08T11:30:33.426Z,13.55
2023-05-08T11:33:06.036Z,16.58
2023-05-08T11:35:47.948Z,13.93
2023-05-08T11:38:22.004Z,12.20
2023-05-08T11:40:54.761Z,14.73
2023-05-08T11:43:33.093Z,13.93
2023-05-08T11:46:01.901Z,14.20
2023-05-08T11:48:28.662Z,11.98
2023-05-08T11:50:55.941Z,15.40
2023-05-08T11:53:23.057Z,17.80
2023-05-08T11:55:50.550Z,15.67
2023-05-08T11:58:17.228Z,16.13
2023-05-08T12:00:45.458Z,16.25
2023-05-08T12:03:17.371Z,13.07
2023-05-08T12:05:44.875Z,13.75
2023-05-08T12:08:13.087Z,14.63
2023-05-08T12:11:00.214Z,15.80
2023-05-08T12:13:29.294Z,15.02
2023-05-08T12:16:00.876Z,18.50
2023-05-08T12:18:28.744Z,18.08
2023-05-08T12:23:31.492Z,16.40
2023-05-08T12:26:02.008Z,14.77
2023-05-08T12:28:29.049Z,15.95
2023-05-08T12:30:56.444Z,15.73
2023-05-08T12:33:24.121Z,20.00
2023-05-08T12:35:51.041Z,19.38
2023-05-08T12:38:17.667Z,17.40
2023-05-08T12:40:46.344Z,17.30
2023-05-08T12:43:13.403Z,18.70
2023-05-08T12:45:42.143Z,16.92
2023-05-08T12:48:13.715Z,20.60
2023-05-08T12:50:42.557Z,17.88
2023-05-08T12:53:14.165Z,15.63
2023-05-08T12:55:53.603Z,19.63
2023-05-08T12:58:24.308Z,15.57
2023-05-08T13:00:52.524Z,17.65
2023-05-08T13:03:25.138Z,17.83
2023-05-08T13:05:53.023Z,15.15
2023-05-08T13:08:20.140Z,14.18
2023-05-08T13:10:51.985Z,17.60
2023-05-08T13:13:20.614Z,18.75
2023-05-08T13:15:48.786Z,17.02
2023-05-08T13:18:16.851Z,14.88
2023-05-08T13:20:44.265Z,16.58
2023-05-08T13:23:11.146Z,15.07
2023-05-08T13:25:38.751Z,17.50
2023-05-08T13:28:06.175Z,15.38
2023-05-08T13:30:33.493Z,14.63
2023-05-08T13:33:00.522Z,15.18
2023-05-08T13:35:27.442Z,13.17
2023-05-08T13:37:58.105Z,12.95
2023-05-08T13:40:25.180Z,12.90
2023-05-08T13:42:52.159Z,16.92
2023-05-08T13:45:19.362Z,13.73
2023-05-08T13:47:47.137Z,15.25
2023-05-08T13:50:16.208Z,13.73
2023-05-08T13:52:43.224Z,12.85
2023-05-08T13:55:12.078Z,12.75
2023-05-08T13:57:39.337Z,14.93
2023-05-08T14:00:07.411Z,11.70
2023-05-08T14:05:00.690Z,13.73
2023-05-08T14:07:27.360Z,13.88
2023-05-08T14:09:54.322Z,15.05
2023-05-08T14:12:21.283Z,10.27
2023-05-08T14:14:47.872Z,17.10
2023-05-08T14:17:14.576Z,12.55
2023-05-08T14:19:41.156Z,12.93
2023-05-08T14:22:07.720Z,11.63
2023-05-08T14:24:34.411Z,12.57
2023-05-08T14:27:01.164Z,11.70
2023-05-08T14:29:27.766Z,13.88
2023-05-08T14:31:54.445Z,15.05
2023-05-08T14:34:21.212Z,13.02
2023-05-08T14:36:47.863Z,15.98
2023-05-08T14:39:14.478Z,14.80
2023-05-08T14:41:42.100Z,16.00
2023-05-08T14:44:14.664Z,16.65
2023-05-08T14:46:41.285Z,14.10
2023-05-08T14:49:08.038Z,11.45
2023-05-08T14:51:34.721Z,17.50
2023-05-08T14:54:01.549Z,12.10
2023-05-08T14:56:30.322Z,12.35
2023-05-08T14:59:01.387Z,10.13
2023-05-08T15:01:28.102Z,14.70
2023-05-08T15:03:54.815Z,9.23
2023-05-08T15:06:22.922Z,8.77
2023-05-08T15:08:49.678Z,13.60
2023-05-08T15:11:16.327Z,12.68
2023-05-08T15:13:42.924Z,9.90
2023-05-08T15:16:09.787Z,7.30
2023-05-08T15:18:36.651Z,8.30
2023-05-08T15:21:03.366Z,7.57
2023-05-08T15:23:30.009Z,11.38
2023-05-08T15:25:56.703Z,10.77
2023-05-08T15:28:23.376Z,7.97
2023-05-08T15:30:49.949Z,9.07
2023-05-08T15:33:16.500Z,10.05
2023-05-08T15:35:43.077Z,11.30
2023-05-08T15:38:09.655Z,9.32
2023-05-08T15:40:36.308Z,10.55
2023-05-08T15:43:02.914Z,10.18
2023-05-08T15:45:29.639Z,9.27
2023-05-08T15:47:56.413Z,11.07
2023-05-08T15:50:23.070Z,11.80
2023-05-08T15:52:49.963Z,12.27
2023-05-08T15:55:16.637Z,11.43
2023-05-08T15:57:43.340Z,12.30
2023-05-08T16:00:10.593Z,7.95
2023-05-08T16:02:37.299Z,10.37
2023-05-08T16:05:04.028Z,10.10
2023-05-08T16:07:30.595Z,9.43
2023-05-08T16:09:57.195Z,11.13
2023-05-08T16:12:23.786Z,10.73
2023-05-08T16:14:50.390Z,11.02
2023-05-08T16:17:17.132Z,12.13
2023-05-08T16:19:43.772Z,11.65
2023-05-08T16:22:10.341Z,11.10
2023-05-08T16:24:36.893Z,11.68
2023-05-08T16:27:03.803Z,11.27
2023-05-08T16:29:30.335Z,12.23
2023-05-08T16:31:57.029Z,11.65
2023-05-08T16:34:23.711Z,9.93
2023-05-08T16:36:50.332Z,11.20
2023-05-08T16:39:16.991Z,11.23
2023-05-08T16:41:43.807Z,10.73
2023-05-08T16:44:10.405Z,12.00
2023-05-08T16:46:37.050Z,13.88
2023-05-08T16:49:03.704Z,13.73
2023-05-08T16:51:30.235Z,12.20
2023-05-08T16:53:57.990Z,13.93
2023-05-08T16:56:25.035Z,13.25
2023-05-08T16:58:51.577Z,14.65
2023-05-08T17:01:18.282Z,16.55
2023-05-08T17:03:44.958Z,16.35
2023-05-08T17:06:11.824Z,13.90
2023-05-08T17:08:38.491Z,17.00
2023-05-08T17:11:05.085Z,12.48
2023-05-08T17:13:31.767Z,14.15
2023-05-08T17:15:58.650Z,12.05
2023-05-08T17:18:25.546Z,17.98
2023-05-08T17:20:52.323Z,13.30
2023-05-08T17:23:18.954Z,14.55
2023-05-08T17:25:45.592Z,16.00
2023-05-08T17:28:12.229Z,14.80
2023-05-08T17:30:39.744Z,16.00
2023-05-08T17:33:06.434Z,14.57
2023-05-08T17:35:33.201Z,14.38
2023-05-08T17:37:59.779Z,15.68
2023-05-08T17:40:26.373Z,15.02
2023-05-08T17:42:52.990Z,14.23
2023-05-08T17:45:19.606Z,12.38
2023-05-08T17:47:46.559Z,15.52
2023-05-08T17:50:13.337Z,14.45
2023-05-08T17:52:40.145Z,13.77
2023-05-08T17:55:07.657Z,14.23
2023-05-08T17:57:34.451Z,13.02
2023-05-08T18:00:01.144Z,11.52
2023-05-08T18:02:27.751Z,15.23
2023-05-08T18:04:54.429Z,12.60
2023-05-08T18:07:21.021Z,17.25
2023-05-08T18:09:47.755Z,16.48
2023-05-08T18:12:14.335Z,13.05
2023-05-08T18:14:40.980Z,14.77
2023-05-08T18:17:07.536Z,13.32
2023-05-08T18:19:34.220Z,14.80
2023-05-08T18:22:00.949Z,14.52
2023-05-08T18:24:29.151Z,13.25
2023-05-08T18:29:22.189Z,13.55
2023-05-08T18:31:48.852Z,13.77
2023-05-08T18:34:15.428Z,14.73
2023-05-08T18:36:41.996Z,15.10
2023-05-08T18:39:08.567Z,13.93
2023-05-08T18:41:35.226Z,14.35
2023-05-08T18:44:02.124Z,11.25
2023-05-08T18:46:28.712Z,13.35
2023-05-08T18:48:55.358Z,14.43
2023-05-08T18:51:21.985Z,13.55
2023-05-08T18:53:48.587Z,12.50
2023-05-08T18:56:15.173Z,15.02
2023-05-08T18:58:41.781Z,15.90
2023-05-08T19:01:08.388Z,20.17
2023-05-08T19:03:35.062Z,14.25
2023-05-08T19:06:01.998Z,12.30
2023-05-08T19:08:28.752Z,14.93
2023-05-08T19:10:55.308Z,13.65
2023-05-08T19:13:21.959Z,14.43
2023-05-08T19:15:48.761Z,16.25
2023-05-08T19:18:15.333Z,13.52
2023-05-08T19:20:42.037Z,12.27
2023-05-08T19:23:08.973Z,14.30
2023-05-08T19:25:38.414Z,11.38
2023-05-08T19:28:05.220Z,13.55
2023-05-08T19:30:31.841Z,13.15
2023-05-08T19:32:58.408Z,12.35
2023-05-08T19:35:25.174Z,14.73
2023-05-08T19:37:51.759Z,12.13
2023-05-08T19:40:18.480Z,13.23
2023-05-08T19:42:45.060Z,14.43
2023-05-08T19:45:12.907Z,13.68
2023-05-08T19:47:39.547Z,13.55
2023-05-08T19:50:06.774Z,12.63
2023-05-08T19:52:33.404Z,14.27
2023-05-08T19:54:59.966Z,14.15
2023-05-08T19:57:26.866Z,14.85
2023-05-08T19:59:53.429Z,14.82
2023-05-08T20:02:19.984Z,11.40
2023-05-08T20:05:18.194Z,12.73
2023-05-08T20:07:33.143Z,14.30
2023-05-08T20:09:59.752Z,14.68
2023-05-08T20:12:26.600Z,11.75
2023-05-08T20:14:53.264Z,16.98
2023-05-08T20:17:19.937Z,13.02
2023-05-08T20:19:46.515Z,15.05
2023-05-08T20:22:13.103Z,14.93
2023-05-08T20:24:39.697Z,15.98
2023-05-08T20:27:06.318Z,17.42
2023-05-08T20:29:32.956Z,14.82
2023-05-08T20:31:59.683Z,15.23
2023-05-08T20:34:26.447Z,13.48
2023-05-08T20:36:53.032Z,13.90
2023-05-08T20:39:20.084Z,14.35
2023-05-08T20:41:46.641Z,15.13
2023-05-08T20:44:13.272Z,14.55
2023-05-08T20:46:39.954Z,16.50
2023-05-08T20:49:06.577Z,14.75
2023-05-08T20:51:33.140Z,13.25
2023-05-08T20:53:59.936Z,12.82
2023-05-08T20:56:26.532Z,10.65
2023-05-08T20:58:53.201Z,12.27
2023-05-08T21:01:21.062Z,12.95
2023-05-08T21:06:14.589Z,15.60
2023-05-08T21:08:41.187Z,12.10
2023-05-08T21:11:07.823Z,12.10
2023-05-08T21:13:34.528Z,11.27
2023-05-08T21:16:01.147Z,9.73
2023-05-08T21:18:27.802Z,10.38
2023-05-08T21:20:54.432Z,10.13
2023-05-08T21:23:21.062Z,10.73
2023-05-08T21:25:50.690Z,8.52
2023-05-08T21:28:17.562Z,9.77
2023-05-08T21:30:44.867Z,11.32
2023-05-08T21:33:12.238Z,10.23
2023-05-08T21:35:42.031Z,10.23
2023-05-08T21:38:09.478Z,6.97
2023-05-08T21:40:36.139Z,10.13
2023-05-08T21:43:02.767Z,9.18
2023-05-08T21:45:31.087Z,11.00
2023-05-08T21:47:58.763Z,10.65
2023-05-08T21:50:25.974Z,10.35
2023-05-08T21:52:52.675Z,9.27
2023-05-08T21:55:19.989Z,9.55
2023-05-08T21:57:46.535Z,8.27
2023-05-08T22:00:13.774Z,8.80
2023-05-08T22:02:46.337Z,9.82
2023-05-08T22:05:13.320Z,15.48
2023-05-08T22:07:40.088Z,8.07
2023-05-08T22:10:07.420Z,10.38
2023-05-08T22:12:34.009Z,17.93
2023-05-08T22:15:00.774Z,9.13
2023-05-08T22:17:27.577Z,10.85
2023-05-08T22:19:54.137Z,10.20
2023-05-08T22:22:20.874Z,12.18
2023-05-08T22:24:47.472Z,8.93
2023-05-08T22:27:14.039Z,10.20
2023-05-08T22:29:40.773Z,10.30
2023-05-08T22:32:07.530Z,9.48
2023-05-08T22:34:34.290Z,9.13
2023-05-08T22:37:01.003Z,12.70
2023-05-08T22:39:27.787Z,11.90
2023-05-08T22:41:54.722Z,9.45
2023-05-08T22:44:21.661Z,8.95
2023-05-08T22:46:48.300Z,12.13
2023-05-08T22:49:15.071Z,12.88
2023-05-08T22:51:41.766Z,9.13
2023-05-08T22:54:08.357Z,11.55
2023-05-08T22:56:35.050Z,11.43
2023-05-08T22:59:01.763Z,9.50
2023-05-08T23:01:28.336Z,11.45
2023-05-08T23:03:55.069Z,9.63
2023-05-08T23:06:21.695Z,9.85
2023-05-08T23:08:48.369Z,11.48
2023-05-08T23:11:15.462Z,14.40
2023-05-08T23:13:42.144Z,11.52
2023-05-08T23:16:08.707Z,8.10
2023-05-08T23:18:35.346Z,9.23
2023-05-08T23:21:06.591Z,10.65
2023-05-08T23:23:33.662Z,12.65
2023-05-08T23:26:00.712Z,11.40
2023-05-08T23:28:27.589Z,10.30
2023-05-08T23:30:54.320Z,9.80
2023-05-08T23:33:21.092Z,10.43
2023-05-08T23:35:47.690Z,9.15
2023-05-08T23:38:14.432Z,7.70
2023-05-08T23:40:41.015Z,9.90
2023-05-08T23:43:07.746Z,9.13
2023-05-08T23:45:34.300Z,10.55
2023-05-08T23:48:00.891Z,9.20
2023-05-08T23:50:27.633Z,8.95
2023-05-08T23:52:54.284Z,10.07
2023-05-08T23:55:22.374Z,11.38
2023-05-08T23:57:49.058Z,11.80
